Terminal Aerodrome Forecast
Issued by NWS

Home | Current Version | Previous Version | Text Only | Print | Product List | Glossary On
Versions: 1 2 3 4 5 6 7 8 9 10 11 12 13 14 15 16 17
000
FTUS45 KTFX 241125
TAFLWT
TAF
KLWT 241125Z 2412/2512 28006KT P6SM VCFG OVC005
      TEMPO 2412/2416 3SM BR OVC002
     FM241600 27004KT P6SM VCFG SCT005 BKN010
     FM242000 28005KT P6SM VCFG SCT010 OVC025
     FM242300 25005KT P6SM SCT025 BKN040=

USA.gov is the U.S. government's official web portal to all federal, state and local government web resources and services.